Time;durP1;ratioP1;P1;durP2;ratioP2;P2;SDS_P1;SDS_P2;PMS_P1;PMS_P2;Temp;Humidity;BMP_temperature;BMP_pressure;BME280_temperature;BME280_humidity;BME280_pressure;Samples;Min_cycle;Max_cycle;Signal;HPM_P1;HPM_P2
2022/10/12 00:00:01;;;;;;;;;;;;;;;16.53;71.63;102249.63;1256267;23;603;-74
2022/10/12 00:00:51;;;;;;;;;;;;;;;16.52;73.36;102258.66;1256587;23;603;-74
2022/10/12 00:01:42;;;;;;;;;;;;;;;16.52;72.88;102254.16;1254987;23;642;-74
2022/10/12 00:02:32;;;;;;;;;;;;;;;16.52;71.86;102247.91;1256450;23;654;-75
2022/10/12 00:03:23;;;;;;;;;;;;;;;16.52;72.87;102248.78;1256615;23;685;-75
2022/10/12 00:04:13;;;;;;;;;;;;;;;16.50;72.59;102245.31;1256561;23;685;-74
2022/10/12 00:05:03;;;;;;;;;;;;;;;16.51;73.30;102246.19;1255883;23;614;-75
2022/10/12 00:05:54;;;;;;;;;;;;;;;16.53;74.33;102255.00;1254062;23;647;-74
2022/10/12 00:06:44;;;;;;;;;;;;;;;16.52;73.55;102254.16;1256430;23;657;-74
2022/10/12 00:07:35;;;;;;;;;;;;;;;16.56;73.34;102252.13;1256541;23;669;-74
2022/10/12 00:08:25;;;;;;;;;;;;;;;16.53;73.15;102255.00;1256616;23;666;-74
2022/10/12 00:09:16;;;;;;;;;;;;;;;16.53;72.83;102250.50;1256552;23;634;-74
2022/10/12 00:10:06;;;;;;;;;;;;;;;16.53;73.10;102250.50;1256337;23;653;-74
2022/10/12 00:10:56;;;;;;;;;;;;;;;16.53;75.11;102249.63;1256509;23;661;-74
2022/10/12 00:11:47;;;;;;;;;;;;;;;16.51;73.25;102248.88;1256522;23;622;-74
2022/10/12 00:12:37;;;;;;;;;;;;;;;16.49;73.07;102243.59;1256541;23;680;-74
2022/10/12 00:13:28;;;;;;;;;;;;;;;16.50;72.91;102244.44;1256328;23;626;-74
2022/10/12 00:14:18;;;;;;;;;;;;;;;16.48;72.92;102247.25;1256496;23;615;-75
2022/10/12 00:15:08;;;;;;;;;;;;;;;16.49;75.14;102242.72;1253903;23;662;-75
2022/10/12 00:15:59;;;;;;;;;;;;;;;16.50;73.88;102247.16;1247864;23;758;-75
2022/10/12 00:16:49;;;;;;;;;;;;;;;16.47;73.10;102234.78;1249370;23;1053;-75
2022/10/12 00:17:40;;;;;;;;;;;;;;;16.47;72.95;102237.47;1255348;23;1949;-75
2022/10/12 00:18:30;;;;;;;;;;;;;;;16.48;75.61;102247.25;1254235;23;655;-75
2022/10/12 00:19:21;;;;;;;;;;;;;;;16.47;75.89;102236.63;1255990;23;650;-75
2022/10/12 00:20:11;;;;;;;;;;;;;;;16.47;74.10;102240.16;1254069;23;611;-75
2022/10/12 00:21:01;;;;;;;;;;;;;;;16.46;73.36;102238.44;1256595;23;647;-74
2022/10/12 00:21:52;;;;;;;;;;;;;;;16.44;74.59;102237.69;1256532;23;642;-74
2022/10/12 00:22:42;;;;;;;;;;;;;;;16.43;75.36;102233.25;1256469;23;644;-74
2022/10/12 00:23:33;;;;;;;;;;;;;;;16.43;73.26;102232.41;1256404;23;749;-73
2022/10/12 00:24:24;;;;;;;;;;;;;;;16.44;74.36;102235.00;1256569;23;668;-73
2022/10/12 00:25:14;;;;;;;;;;;;;;;16.44;74.27;102234.13;1255641;23;653;-74
2022/10/12 00:26:05;;;;;;;;;;;;;;;16.44;73.72;102239.50;1256544;23;546;-74
2022/10/12 00:26:55;;;;;;;;;;;;;;;16.44;74.49;102234.13;1254082;23;700;-74
2022/10/12 00:27:46;;;;;;;;;;;;;;;16.43;74.21;102235.94;1256541;23;628;-74
2022/10/12 00:28:36;;;;;;;;;;;;;;;16.43;73.26;102235.94;1256435;23;614;-74
2022/10/12 00:29:27;;;;;;;;;;;;;;;16.42;74.00;102231.53;1256469;23;641;-73
2022/10/12 00:30:17;;;;;;;;;;;;;;;16.43;75.24;102232.41;1255671;23;680;-74
2022/10/12 00:31:08;;;;;;;;;;;;;;;16.41;74.10;102229.81;1253860;23;701;-74
2022/10/12 00:31:58;;;;;;;;;;;;;;;16.44;77.05;102229.59;1256603;23;624;-74
2022/10/12 00:32:48;;;;;;;;;;;;;;;16.44;77.96;102231.44;1256435;23;657;-74
2022/10/12 00:33:39;;;;;;;;;;;;;;;16.42;76.71;102231.53;1255943;23;646;-73
2022/10/12 00:34:29;;;;;;;;;;;;;;;16.43;77.16;102232.41;1256477;23;634;-73
2022/10/12 00:35:20;;;;;;;;;;;;;;;16.41;73.37;102226.25;1256488;23;573;-74
2022/10/12 00:36:10;;;;;;;;;;;;;;;16.40;76.54;102216.47;1256389;23;649;-74
2022/10/12 00:37:01;;;;;;;;;;;;;;;16.38;72.78;102223.75;1256455;23;639;-74
2022/10/12 00:37:51;;;;;;;;;;;;;;;16.41;74.61;102231.63;1253922;23;654;-74
2022/10/12 00:38:41;;;;;;;;;;;;;;;16.37;72.20;102219.34;1256374;23;672;-75
2022/10/12 00:39:32;;;;;;;;;;;;;;;16.37;73.13;102222.03;1256544;23;643;-74
2022/10/12 00:40:22;;;;;;;;;;;;;;;16.38;75.78;102221.06;1254172;23;670;-74
2022/10/12 00:41:13;;;;;;;;;;;;;;;16.38;74.06;102221.06;1256402;23;838;-74
2022/10/12 00:42:03;;;;;;;;;;;;;;;16.35;73.46;102219.44;1256410;23;811;-74
2022/10/12 00:42:53;;;;;;;;;;;;;;;16.36;75.30;102214.94;1253700;23;950;-74
2022/10/12 00:43:44;;;;;;;;;;;;;;;16.36;77.30;102220.31;1256514;23;636;-74
2022/10/12 00:44:34;;;;;;;;;;;;;;;16.35;74.29;102215.91;1256319;23;633;-73
2022/10/12 00:45:25;;;;;;;;;;;;;;;16.34;76.18;102220.41;1253920;23;618;-74
2022/10/12 00:46:15;;;;;;;;;;;;;;;16.33;77.22;102222.25;1256495;23;681;-74
2022/10/12 00:47:06;;;;;;;;;;;;;;;16.36;77.11;102225.69;1253798;23;646;-74
2022/10/12 00:47:56;;;;;;;;;;;;;;;16.32;77.04;102228.59;1256488;23;630;-73
2022/10/12 00:48:46;;;;;;;;;;;;;;;16.36;75.33;102225.69;1256256;23;637;-74
2022/10/12 00:49:37;;;;;;;;;;;;;;;16.32;76.00;102223.19;1256270;23;602;-74
2022/10/12 00:50:27;;;;;;;;;;;;;;;16.33;78.27;102224.94;1256340;23;646;-74
2022/10/12 00:51:18;;;;;;;;;;;;;;;16.33;78.65;102222.25;1256494;23;650;-74
2022/10/12 00:52:08;;;;;;;;;;;;;;;16.31;76.36;102212.53;1247670;23;654;-74
2022/10/12 00:52:59;;;;;;;;;;;;;;;16.31;77.25;102218.78;1249320;23;606;-74
2022/10/12 00:53:49;;;;;;;;;;;;;;;16.29;73.96;102220.75;1255403;23;677;-74
2022/10/12 00:54:39;;;;;;;;;;;;;;;16.28;76.14;102224.41;1255309;23;657;-74
2022/10/12 00:55:30;;;;;;;;;;;;;;;16.27;75.68;102219.97;1256151;23;630;-74
2022/10/12 00:56:20;;;;;;;;;;;;;;;16.27;75.46;102230.75;1256172;23;669;-74
2022/10/12 00:57:11;;;;;;;;;;;;;;;16.27;77.18;102228.06;1253982;23;654;-74
2022/10/12 00:58:01;;;;;;;;;;;;;;;16.27;76.85;102224.50;1255521;23;649;-74
2022/10/12 00:58:53;;;;;;;;;;;;;;;16.27;75.44;102227.19;1256420;23;650;-74
2022/10/12 00:59:44;;;;;;;;;;;;;;;16.27;77.17;102227.19;1255669;23;642;-74
2022/10/12 01:00:34;;;;;;;;;;;;;;;16.27;75.75;102225.34;1256035;23;625;-74
2022/10/12 01:01:25;;;;;;;;;;;;;;;16.27;77.38;102225.34;1256452;23;685;-75
2022/10/12 01:02:15;;;;;;;;;;;;;;;16.27;76.42;102227.19;1256384;23;648;-75
2022/10/12 01:03:06;;;;;;;;;;;;;;;16.26;75.95;102228.16;1255922;23;649;-74
2022/10/12 01:03:56;;;;;;;;;;;;;;;16.26;76.30;102222.78;1256183;23;1088;-75
2022/10/12 01:04:46;;;;;;;;;;;;;;;16.25;75.20;102223.72;1256335;23;625;-74
2022/10/12 01:05:37;;;;;;;;;;;;;;;16.26;77.26;102223.63;1256322;23;638;-75
2022/10/12 01:06:27;;;;;;;;;;;;;;;16.23;76.70;102221.16;1254049;23;653;-74
2022/10/12 01:07:18;;;;;;;;;;;;;;;16.24;77.08;102214.81;1256480;23;632;-75
2022/10/12 01:08:08;;;;;;;;;;;;;;;16.22;75.29;102222.09;1256320;23;642;-74
2022/10/12 01:08:58;;;;;;;;;;;;;;;16.23;76.57;102217.59;1256426;23;650;-74
2022/10/12 01:09:49;;;;;;;;;;;;;;;16.22;76.16;102224.78;1256304;23;654;-75
2022/10/12 01:10:39;;;;;;;;;;;;;;;16.23;77.02;102218.44;1256343;23;685;-75
2022/10/12 01:11:30;;;;;;;;;;;;;;;16.22;76.02;102219.41;1253598;23;614;-75
2022/10/12 01:12:20;;;;;;;;;;;;;;;16.19;76.30;102222.31;1256252;23;638;-75
2022/10/12 01:13:11;;;;;;;;;;;;;;;16.20;76.95;102217.78;1256490;23;656;-74
2022/10/12 01:14:01;;;;;;;;;;;;;;;16.16;73.92;102216.25;1255642;23;641;-75
2022/10/12 01:14:52;;;;;;;;;;;;;;;16.19;77.22;102222.31;1256410;23;642;-75
2022/10/12 01:15:43;;;;;;;;;;;;;;;16.14;73.15;102213.66;1255586;23;610;-74
2022/10/12 01:16:33;;;;;;;;;;;;;;;16.13;74.38;102211.94;1256259;23;658;-74
2022/10/12 01:17:24;;;;;;;;;;;;;;;16.16;75.44;102213.56;1255873;23;1906;-74
2022/10/12 01:18:14;;;;;;;;;;;;;;;16.15;76.70;102218.09;1256325;23;607;-73
2022/10/12 01:19:04;;;;;;;;;;;;;;;16.14;75.47;102216.38;1256337;23;614;-73
2022/10/12 01:19:55;;;;;;;;;;;;;;;16.12;72.80;102218.28;1256529;23;627;-73
2022/10/12 01:20:45;;;;;;;;;;;;;;;16.13;74.99;102214.63;1256352;23;704;-73
2022/10/12 01:21:36;;;;;;;;;;;;;;;16.14;75.59;102213.66;1256348;23;603;-73
2022/10/12 01:22:26;;;;;;;;;;;;;;;16.15;78.10;102212.72;1256391;23;625;-73
2022/10/12 01:23:17;;;;;;;;;;;;;;;16.13;75.54;102211.94;1256537;23;610;-74
2022/10/12 01:24:07;;;;;;;;;;;;;;;16.12;76.71;102212.91;1256358;23;693;-74
2022/10/12 01:24:59;;;;;;;;;;;;;;;16.10;74.41;102206.78;1256375;23;610;-74
2022/10/12 01:25:49;;;;;;;;;;;;;;;16.12;76.88;102207.53;1255465;23;736;-74
2022/10/12 01:26:39;;;;;;;;;;;;;;;16.13;75.56;102208.38;1256180;23;657;-74
2022/10/12 01:27:30;;;;;;;;;;;;;;;16.12;76.38;102207.53;1256233;23;650;-74
2022/10/12 01:28:20;;;;;;;;;;;;;;;16.11;76.99;102211.22;1256210;23;610;-73
2022/10/12 01:29:11;;;;;;;;;;;;;;;16.07;71.53;102209.69;1256363;23;603;-73
2022/10/12 01:30:01;;;;;;;;;;;;;;;16.05;71.09;102206.22;1256352;23;681;-73
2022/10/12 01:30:52;;;;;;;;;;;;;;;16.04;70.88;102199.13;1253737;23;639;-73
2022/10/12 01:31:42;;;;;;;;;;;;;;;16.03;71.18;102196.53;1254999;23;622;-73
2022/10/12 01:32:33;;;;;;;;;;;;;;;16.01;71.36;102204.69;1256431;23;621;-73
2022/10/12 01:33:23;;;;;;;;;;;;;;;16.00;71.19;102205.66;1256358;23;669;-73
2022/10/12 01:34:14;;;;;;;;;;;;;;;15.99;71.08;102203.94;1256566;23;650;-74
2022/10/12 01:35:04;;;;;;;;;;;;;;;15.99;71.61;102209.31;1256382;23;620;-74
2022/10/12 01:35:54;;;;;;;;;;;;;;;15.97;71.02;102200.47;1254185;23;639;-74
2022/10/12 01:36:45;;;;;;;;;;;;;;;15.96;71.31;102206.81;1256342;23;650;-74
2022/10/12 01:37:35;;;;;;;;;;;;;;;15.96;71.33;102210.38;1256218;23;1901;-74
2022/10/12 01:38:26;;;;;;;;;;;;;;;15.96;71.51;102209.50;1256430;23;649;-74
2022/10/12 01:39:16;;;;;;;;;;;;;;;15.95;71.88;102205.97;1256337;23;635;-74
2022/10/12 01:40:06;;;;;;;;;;;;;;;15.95;71.44;102205.09;1256354;23;613;-74
2022/10/12 01:40:57;;;;;;;;;;;;;;;15.95;71.75;102202.41;1256409;23;614;-74
2022/10/12 01:41:47;;;;;;;;;;;;;;;15.96;71.37;102202.31;1256312;23;801;-73
2022/10/12 01:42:38;;;;;;;;;;;;;;;15.94;71.29;102198.84;1256237;23;669;-73
2022/10/12 01:43:28;;;;;;;;;;;;;;;15.93;71.68;102205.22;1256118;23;815;-73
2022/10/12 01:44:19;;;;;;;;;;;;;;;15.93;71.42;102201.69;1253734;23;690;-73
2022/10/12 01:45:09;;;;;;;;;;;;;;;15.93;71.21;102201.69;1256295;23;880;-73
2022/10/12 01:45:59;;;;;;;;;;;;;;;15.93;71.07;102201.69;1256152;23;661;-73
2022/10/12 01:46:50;;;;;;;;;;;;;;;15.92;71.12;102190.06;1247403;23;642;-75
2022/10/12 01:47:40;;;;;;;;;;;;;;;15.91;71.50;102192.84;1249266;23;624;-74
2022/10/12 01:48:31;;;;;;;;;;;;;;;15.90;71.06;102201.88;1254354;23;646;-75
2022/10/12 01:49:22;;;;;;;;;;;;;;;15.92;71.48;102206.19;1256255;23;578;-73
2022/10/12 01:50:12;;;;;;;;;;;;;;;15.92;71.62;102197.25;1255465;23;673;-74
2022/10/12 01:51:03;;;;;;;;;;;;;;;15.91;71.39;102199.09;1256352;23;631;-74
2022/10/12 01:51:53;;;;;;;;;;;;;;;15.91;71.53;102203.59;1256093;23;674;-73
2022/10/12 01:52:44;;;;;;;;;;;;;;;15.91;71.27;102200.91;1253751;23;749;-74
2022/10/12 01:53:34;;;;;;;;;;;;;;;15.90;70.98;102196.50;1256315;23;740;-73
2022/10/12 01:54:25;;;;;;;;;;;;;;;15.90;71.50;102199.19;1256315;23;622;-74
2022/10/12 01:55:15;;;;;;;;;;;;;;;15.90;71.35;102197.34;1256283;23;963;-73
2022/10/12 01:56:05;;;;;;;;;;;;;;;15.91;70.76;102192.84;1247752;23;638;-73
2022/10/12 01:56:56;;;;;;;;;;;;;;;15.90;70.92;102197.34;1249240;23;654;-73
2022/10/12 01:57:46;;;;;;;;;;;;;;;15.89;71.20;102197.44;1255121;23;1921;-75
2022/10/12 01:58:37;;;;;;;;;;;;;;;15.89;71.47;102198.31;1256274;23;747;-73
2022/10/12 01:59:27;;;;;;;;;;;;;;;15.87;71.15;102192.19;1256266;23;644;-74
2022/10/12 02:00:18;;;;;;;;;;;;;;;15.87;71.25;102194.00;1256139;23;660;-73
2022/10/12 02:01:08;;;;;;;;;;;;;;;15.87;71.21;102196.69;1256347;23;650;-74
2022/10/12 02:01:59;;;;;;;;;;;;;;;15.85;71.48;102195.91;1256089;23;732;-73
2022/10/12 02:02:49;;;;;;;;;;;;;;;15.85;70.94;102191.41;1255435;23;654;-73
2022/10/12 02:03:40;;;;;;;;;;;;;;;15.86;71.15;102190.44;1256159;23;1134;-72
2022/10/12 02:04:30;;;;;;;;;;;;;;;15.87;70.47;102191.31;1256259;23;672;-72
2022/10/12 02:05:21;;;;;;;;;;;;;;;15.86;70.92;102197.66;1256237;23;534;-73
2022/10/12 02:06:11;;;;;;;;;;;;;;;15.85;70.75;102194.09;1256381;23;656;-73
2022/10/12 02:07:02;;;;;;;;;;;;;;;15.85;70.76;102193.22;1256186;23;678;-73
2022/10/12 02:07:52;;;;;;;;;;;;;;;15.84;70.96;102187.00;1256253;23;624;-73
2022/10/12 02:08:42;;;;;;;;;;;;;;;15.83;71.02;102187.97;1253923;23;678;-73
2022/10/12 02:09:33;;;;;;;;;;;;;;;15.83;70.91;102190.66;1256243;23;661;-74
2022/10/12 02:10:23;;;;;;;;;;;;;;;15.84;71.05;102191.50;1256206;23;696;-75
2022/10/12 02:11:14;;;;;;;;;;;;;;;15.83;71.20;102185.28;1255568;23;670;-74
2022/10/12 02:12:04;;;;;;;;;;;;;;;15.83;70.89;102185.28;1256318;23;701;-75
2022/10/12 02:12:54;;;;;;;;;;;;;;;15.83;70.89;102179.03;1256179;23;912;-74
2022/10/12 02:13:45;;;;;;;;;;;;;;;15.83;70.92;102181.72;1256366;23;642;-74
2022/10/12 02:14:35;;;;;;;;;;;;;;;15.83;70.92;102187.09;1254005;23;671;-74
2022/10/12 02:15:26;;;;;;;;;;;;;;;15.79;70.62;102175.66;1253128;23;775;-73
2022/10/12 02:16:16;;;;;;;;;;;;;;;15.80;70.98;102174.72;1256412;23;617;-74
2022/10/12 02:17:07;;;;;;;;;;;;;;;15.81;71.36;102184.50;1256301;23;664;-74
2022/10/12 02:17:58;;;;;;;;;;;;;;;15.79;71.28;102174.81;1256301;23;673;-75
2022/10/12 02:18:48;;;;;;;;;;;;;;;15.77;71.12;102169.53;1255467;23;634;-74
2022/10/12 02:19:38;;;;;;;;;;;;;;;15.78;71.22;102176.63;1256301;23;724;-74
2022/10/12 02:20:29;;;;;;;;;;;;;;;15.78;71.01;102181.16;1247422;23;654;-74
2022/10/12 02:21:19;;;;;;;;;;;;;;;15.75;70.95;102176.00;1249295;23;679;-74
2022/10/12 02:22:10;;;;;;;;;;;;;;;15.76;71.22;102172.34;1255450;23;642;-74
2022/10/12 02:23:00;;;;;;;;;;;;;;;15.76;71.21;102181.28;1253691;23;634;-75
2022/10/12 02:23:50;;;;;;;;;;;;;;;15.77;70.81;102174.03;1256214;23;717;-73
2022/10/12 02:24:41;;;;;;;;;;;;;;;15.76;71.24;102175.91;1256446;23;610;-73
2022/10/12 02:25:31;;;;;;;;;;;;;;;15.75;71.21;102171.50;1256096;23;618;-73
2022/10/12 02:26:22;;;;;;;;;;;;;;;15.76;71.57;102175.91;1247452;23;630;-73
2022/10/12 02:27:12;;;;;;;;;;;;;;;15.76;71.34;102177.72;1248382;23;602;-74
2022/10/12 02:28:03;;;;;;;;;;;;;;;15.77;71.13;102174.03;1255230;23;689;-73
2022/10/12 02:28:53;;;;;;;;;;;;;;;15.75;70.73;102171.50;1256229;23;644;-73
2022/10/12 02:29:43;;;;;;;;;;;;;;;15.76;71.40;102169.66;1253390;23;904;-74
2022/10/12 02:30:34;;;;;;;;;;;;;;;15.75;70.89;102170.63;1256282;23;622;-74
2022/10/12 02:31:24;;;;;;;;;;;;;;;15.75;71.29;102167.94;1247577;23;709;-74
2022/10/12 02:32:15;;;;;;;;;;;;;;;15.77;71.04;102165.97;1247361;23;721;-74
2022/10/12 02:33:05;;;;;;;;;;;;;;;15.75;71.10;102163.44;1255218;23;672;-75
2022/10/12 02:33:56;;;;;;;;;;;;;;;15.72;71.46;102160.94;1256252;23;680;-74
2022/10/12 02:34:46;;;;;;;;;;;;;;;15.73;70.94;102161.78;1256262;23;614;-74
2022/10/12 02:35:36;;;;;;;;;;;;;;;15.71;71.30;102161.91;1256127;23;702;-74
2022/10/12 02:36:27;;;;;;;;;;;;;;;15.72;71.15;102165.44;1247547;23;643;-74
2022/10/12 02:37:17;;;;;;;;;;;;;;;15.73;70.71;102161.78;1249193;23;661;-74
2022/10/12 02:38:08;;;;;;;;;;;;;;;15.73;71.23;102161.78;1254208;23;615;-73
2022/10/12 02:38:58;;;;;;;;;;;;;;;15.72;71.33;102154.69;1253798;23;629;-73
2022/10/12 02:39:49;;;;;;;;;;;;;;;15.73;71.02;102156.41;1256123;23;685;-74
2022/10/12 02:40:39;;;;;;;;;;;;;;;15.73;70.92;102153.72;1256338;23;673;-74
2022/10/12 02:41:29;;;;;;;;;;;;;;;15.72;71.54;102154.69;1256238;23;645;-74
2022/10/12 02:42:20;;;;;;;;;;;;;;;15.73;71.13;102159.97;1256289;23;648;-74
2022/10/12 02:43:10;;;;;;;;;;;;;;;15.72;70.83;102150.19;1253770;23;623;-73
2022/10/12 02:44:01;;;;;;;;;;;;;;;15.71;70.95;102152.97;1256253;23;595;-73
2022/10/12 02:44:51;;;;;;;;;;;;;;;15.70;70.87;102151.25;1253733;23;639;-73
2022/10/12 02:45:41;;;;;;;;;;;;;;;15.71;70.78;102152.97;1256175;23;634;-73
2022/10/12 02:46:32;;;;;;;;;;;;;;;15.69;70.84;102149.50;1256185;23;634;-74
2022/10/12 02:47:22;;;;;;;;;;;;;;;15.70;71.05;102146.72;1256104;23;681;-74
2022/10/12 02:48:13;;;;;;;;;;;;;;;15.68;71.01;102150.47;1253517;23;627;-74
2022/10/12 02:49:03;;;;;;;;;;;;;;;15.67;71.03;102149.63;1247497;23;611;-73
2022/10/12 02:49:53;;;;;;;;;;;;;;;15.69;70.74;102147.69;1249124;23;689;-74
2022/10/12 02:50:44;;;;;;;;;;;;;;;15.69;70.59;102149.50;1255228;23;666;-73
2022/10/12 02:51:34;;;;;;;;;;;;;;;15.68;70.84;102150.47;1256418;23;668;-74
2022/10/12 02:52:25;;;;;;;;;;;;;;;15.66;70.96;102141.66;1253523;23;658;-73
2022/10/12 02:53:15;;;;;;;;;;;;;;;15.67;70.61;102144.22;1256265;23;671;-73
2022/10/12 02:54:06;;;;;;;;;;;;;;;15.66;70.77;102139.81;1256135;23;657;-73
2022/10/12 02:54:56;;;;;;;;;;;;;;;15.67;70.97;102143.38;1256266;23;638;-73
2022/10/12 02:55:46;;;;;;;;;;;;;;;15.65;70.89;102147.97;1256111;23;638;-72
2022/10/12 02:56:37;;;;;;;;;;;;;;;15.65;70.81;102140.78;1256158;23;602;-75
2022/10/12 02:57:27;;;;;;;;;;;;;;;15.66;70.64;102139.81;1256055;23;1873;-73
2022/10/12 02:58:18;;;;;;;;;;;;;;;15.65;70.84;102147.97;1256212;23;666;-73
2022/10/12 02:59:08;;;;;;;;;;;;;;;15.65;70.59;102142.59;1247480;23;642;-73
2022/10/12 02:59:58;;;;;;;;;;;;;;;15.65;70.72;102145.28;1249018;23;650;-73
2022/10/12 03:00:49;;;;;;;;;;;;;;;15.66;70.15;102147.03;1253471;23;666;-74
2022/10/12 03:01:39;;;;;;;;;;;;;;;15.66;70.93;102147.03;1256252;23;626;-73
2022/10/12 03:02:30;;;;;;;;;;;;;;;15.65;70.52;102153.34;1256145;23;642;-73
2022/10/12 03:03:20;;;;;;;;;;;;;;;15.65;70.51;102145.28;1256211;23;626;-73
2022/10/12 03:04:11;;;;;;;;;;;;;;;15.65;70.67;102147.97;1256142;23;628;-73
2022/10/12 03:05:01;;;;;;;;;;;;;;;15.63;70.78;102148.94;1253413;23;679;-73
2022/10/12 03:05:51;;;;;;;;;;;;;;;15.61;70.55;102150.88;1255549;23;658;-73
2022/10/12 03:06:42;;;;;;;;;;;;;;;15.62;70.29;102152.59;1255776;23;649;-73
2022/10/12 03:07:32;;;;;;;;;;;;;;;15.65;70.43;102153.34;1253424;23;682;-73
2022/10/12 03:08:23;;;;;;;;;;;;;;;15.63;70.64;102143.56;1255828;23;686;-73
2022/10/12 03:09:13;;;;;;;;;;;;;;;15.62;70.57;102144.53;1255780;23;628;-73
2022/10/12 03:10:04;;;;;;;;;;;;;;;15.62;70.21;102151.72;1253431;23;702;-73
2022/10/12 03:10:54;;;;;;;;;;;;;;;15.62;70.50;102144.53;1255613;23;705;-73
2022/10/12 03:11:44;;;;;;;;;;;;;;;15.62;70.15;102141.84;1255717;23;645;-74
2022/10/12 03:12:35;;;;;;;;;;;;;;;15.62;70.08;102138.28;1256181;23;610;-74
2022/10/12 03:13:25;;;;;;;;;;;;;;;15.60;70.47;102141.06;1255227;23;665;-74
2022/10/12 03:14:16;;;;;;;;;;;;;;;15.62;70.42;102138.28;1256290;23;646;-73
2022/10/12 03:15:07;;;;;;;;;;;;;;;15.60;70.30;102141.06;1255360;23;633;-73
2022/10/12 03:15:57;;;;;;;;;;;;;;;15.60;70.36;102142.91;1253718;23;757;-73
2022/10/12 03:16:48;;;;;;;;;;;;;;;15.59;70.50;102142.03;1256075;23;626;-73
2022/10/12 03:17:38;;;;;;;;;;;;;;;15.59;70.38;102138.50;1256013;23;1943;-74
2022/10/12 03:18:29;;;;;;;;;;;;;;;15.61;70.46;102142.81;1256135;23;633;-74
2022/10/12 03:19:19;;;;;;;;;;;;;;;15.61;70.53;102139.25;1256228;23;633;-74
2022/10/12 03:20:09;;;;;;;;;;;;;;;15.59;70.71;102142.03;1256257;23;672;-74
2022/10/12 03:21:00;;;;;;;;;;;;;;;15.59;70.63;102139.34;1256182;23;619;-74
2022/10/12 03:21:50;;;;;;;;;;;;;;;15.59;70.55;102144.72;1256308;23;646;-73
2022/10/12 03:22:41;;;;;;;;;;;;;;;15.59;70.17;102143.84;1255982;23;638;-73
2022/10/12 03:23:31;;;;;;;;;;;;;;;15.59;70.25;102138.50;1256038;23;627;-73
2022/10/12 03:24:21;;;;;;;;;;;;;;;15.58;70.44;102131.41;1256245;23;658;-73
2022/10/12 03:25:12;;;;;;;;;;;;;;;15.57;70.30;102141.31;1256296;23;673;-74
2022/10/12 03:26:02;;;;;;;;;;;;;;;15.57;70.37;102133.25;1256140;23;634;-73
2022/10/12 03:26:53;;;;;;;;;;;;;;;15.58;70.14;102137.66;1247297;23;611;-74
2022/10/12 03:27:43;;;;;;;;;;;;;;;15.57;70.25;102130.56;1248430;23;645;-74
2022/10/12 03:28:34;;;;;;;;;;;;;;;15.56;70.45;102128.84;1255214;23;694;-74
2022/10/12 03:29:24;;;;;;;;;;;;;;;15.55;70.17;102132.47;1256186;23;646;-73
2022/10/12 03:30:15;;;;;;;;;;;;;;;15.55;70.20;102136.94;1256068;23;622;-74
2022/10/12 03:31:05;;;;;;;;;;;;;;;15.54;70.33;102136.09;1256138;23;638;-74
2022/10/12 03:31:55;;;;;;;;;;;;;;;15.54;70.25;102132.53;1256081;23;614;-74
2022/10/12 03:32:46;;;;;;;;;;;;;;;15.54;70.16;102130.72;1256208;23;618;-74
2022/10/12 03:33:36;;;;;;;;;;;;;;;15.54;70.29;102136.09;1256194;23;649;-74
2022/10/12 03:34:27;;;;;;;;;;;;;;;15.53;70.13;102134.38;1256203;23;752;-74
2022/10/12 03:35:17;;;;;;;;;;;;;;;15.54;70.27;102129.84;1256092;23;650;-74
2022/10/12 03:36:08;;;;;;;;;;;;;;;15.52;69.97;102132.63;1256041;23;638;-74
2022/10/12 03:36:58;;;;;;;;;;;;;;;15.53;70.40;102128.13;1255437;23;662;-74
2022/10/12 03:37:49;;;;;;;;;;;;;;;15.53;70.20;102125.44;1247174;23;1917;-73
2022/10/12 03:38:39;;;;;;;;;;;;;;;15.52;69.91;102132.63;1248991;23;634;-74
2022/10/12 03:39:30;;;;;;;;;;;;;;;15.51;70.06;102133.59;1255153;23;626;-74
2022/10/12 03:40:20;;;;;;;;;;;;;;;15.52;69.70;102129.09;1253647;23;571;-74
2022/10/12 03:41:11;;;;;;;;;;;;;;;15.52;69.90;102124.56;1255172;23;677;-74
2022/10/12 03:42:01;;;;;;;;;;;;;;;15.52;70.17;102126.41;1256163;23;744;-74
2022/10/12 03:42:52;;;;;;;;;;;;;;;15.52;70.11;102126.41;1256158;23;641;-74
2022/10/12 03:43:42;;;;;;;;;;;;;;;15.51;69.79;102133.59;1256169;23;654;-74
2022/10/12 03:44:32;;;;;;;;;;;;;;;15.52;69.83;102127.25;1256083;23;685;-74
2022/10/12 03:45:23;;;;;;;;;;;;;;;15.52;69.88;102127.25;1256168;23;630;-74
2022/10/12 03:46:13;;;;;;;;;;;;;;;15.51;70.22;102125.53;1256234;23;646;-74
2022/10/12 03:47:04;;;;;;;;;;;;;;;15.51;70.12;102124.69;1256051;23;650;-74
2022/10/12 03:47:54;;;;;;;;;;;;;;;15.51;70.05;102130.03;1256178;23;658;-74
2022/10/12 03:48:44;;;;;;;;;;;;;;;15.50;70.01;102129.19;1255977;23;645;-74
2022/10/12 03:49:35;;;;;;;;;;;;;;;15.50;69.95;102129.19;1256190;23;619;-74
2022/10/12 03:50:25;;;;;;;;;;;;;;;15.50;69.90;102131.00;1256090;23;802;-74
2022/10/12 03:51:16;;;;;;;;;;;;;;;15.49;69.93;102131.97;1256358;23;637;-74
2022/10/12 03:52:06;;;;;;;;;;;;;;;15.48;70.25;102128.41;1256062;23;634;-74
2022/10/12 03:52:57;;;;;;;;;;;;;;;15.48;69.51;102131.09;1255996;23;658;-74
2022/10/12 03:53:47;;;;;;;;;;;;;;;15.49;69.99;102132.84;1256119;23;666;-74
2022/10/12 03:54:37;;;;;;;;;;;;;;;15.51;69.89;102128.22;1256050;23;693;-74
2022/10/12 03:55:28;;;;;;;;;;;;;;;15.49;70.09;102132.84;1253584;23;677;-74
2022/10/12 03:56:18;;;;;;;;;;;;;;;15.48;69.86;102131.09;1256117;23;590;-74
2022/10/12 03:57:09;;;;;;;;;;;;;;;15.46;69.88;102127.66;1256048;23;614;-74
2022/10/12 03:57:59;;;;;;;;;;;;;;;15.49;70.06;102132.84;1256152;23;658;-74
2022/10/12 03:58:50;;;;;;;;;;;;;;;15.48;69.73;102128.41;1256093;23;623;-74
2022/10/12 03:59:40;;;;;;;;;;;;;;;15.49;70.06;102132.84;1255953;23;618;-73
2022/10/12 04:00:31;;;;;;;;;;;;;;;15.49;69.88;102135.53;1256162;23;651;-74
2022/10/12 04:01:21;;;;;;;;;;;;;;;15.45;70.13;102123.25;1256029;23;622;-74
2022/10/12 04:02:11;;;;;;;;;;;;;;;15.47;70.07;102131.19;1256042;23;645;-74
2022/10/12 04:03:02;;;;;;;;;;;;;;;15.44;69.91;102124.19;1253428;23;611;-74
2022/10/12 04:03:52;;;;;;;;;;;;;;;15.47;70.18;102124.00;1255915;23;1609;-74
2022/10/12 04:04:43;;;;;;;;;;;;;;;15.46;70.04;102132.16;1256038;23;638;-74
2022/10/12 04:05:33;;;;;;;;;;;;;;;15.45;70.01;102125.94;1256190;23;626;-74
2022/10/12 04:06:24;;;;;;;;;;;;;;;15.46;69.74;102124.09;1256017;23;662;-75
2022/10/12 04:07:14;;;;;;;;;;;;;;;15.43;69.87;102126.97;1256213;23;621;-74
2022/10/12 04:08:04;;;;;;;;;;;;;;;15.42;70.12;102120.75;1255984;23;680;-74
2022/10/12 04:08:55;;;;;;;;;;;;;;;15.44;70.05;102117.97;1256154;23;639;-74
2022/10/12 04:09:46;;;;;;;;;;;;;;;15.42;69.99;102118.06;1256054;23;654;-74
2022/10/12 04:10:36;;;;;;;;;;;;;;;15.43;69.86;102122.47;1255376;23;692;-74
2022/10/12 04:11:27;;;;;;;;;;;;;;;15.42;70.29;102120.75;1252729;23;713;-74
2022/10/12 04:12:17;;;;;;;;;;;;;;;15.42;69.94;102118.06;1253808;23;634;-74
2022/10/12 04:13:08;;;;;;;;;;;;;;;15.44;70.04;102120.66;1256176;23;707;-74
2022/10/12 04:13:58;;;;;;;;;;;;;;;15.44;70.18;102123.34;1256167;23;645;-74
2022/10/12 04:14:49;;;;;;;;;;;;;;;15.45;70.12;102127.75;1256106;23;649;-74
2022/10/12 04:15:39;;;;;;;;;;;;;;;15.42;69.82;102120.75;1253503;23;654;-74
2022/10/12 04:16:29;;;;;;;;;;;;;;;15.45;69.77;102127.75;1256153;23;685;-74
2022/10/12 04:17:20;;;;;;;;;;;;;;;15.45;69.94;102125.94;1256144;23;598;-74
2022/10/12 04:18:10;;;;;;;;;;;;;;;15.45;69.62;102128.63;1253710;23;662;-74
2022/10/12 04:19:01;;;;;;;;;;;;;;;15.46;70.15;102129.47;1256083;23;637;-74
2022/10/12 04:19:51;;;;;;;;;;;;;;;15.46;69.51;102133.03;1256181;23;610;-74
2022/10/12 04:20:42;;;;;;;;;;;;;;;15.49;69.13;102129.28;1256227;23;681;-75
2022/10/12 04:21:33;;;;;;;;;;;;;;;15.51;68.91;102135.41;1256456;23;635;-74
2022/10/12 04:22:23;;;;;;;;;;;;;;;15.50;68.75;102131.88;1255515;23;657;-74
2022/10/12 04:23:14;;;;;;;;;;;;;;;15.52;68.67;102129.94;1256082;23;664;-74
2022/10/12 04:24:04;;;;;;;;;;;;;;;15.51;68.65;102130.91;1247328;23;619;-74
2022/10/12 04:24:54;;;;;;;;;;;;;;;15.53;68.30;102125.44;1249052;23;674;-75
2022/10/12 04:25:45;;;;;;;;;;;;;;;15.52;68.93;102127.25;1253526;23;614;-73